Time,TemperatureF,DewpointF,PressureIn,WindDirection,WindDirectionDegrees,WindSpeedMPH,WindSpeedGustMPH,Humidity,HourlyPrecipIn,Conditions,Clouds,dailyrainin,SoftwareType,DateUTC
2013-05-02 00:23:00,48.0,42.0,30.42,NE,38,0.0,0.0,79,0.00,,,0.00,,2013-05-02 04:23:00,
2013-05-02 00:33:00,48.0,42.0,30.42,NE,38,0.0,0.0,79,0.00,,,0.00,,2013-05-02 04:33:00,
2013-05-02 00:43:00,48.0,42.0,30.42,NE,38,0.0,0.0,79,0.00,,,0.00,,2013-05-02 04:43:00,
2013-05-02 00:52:00,48.0,42.0,30.42,NE,38,0.0,0.0,79,0.00,,,0.00,,2013-05-02 04:52:00,
2013-05-02 01:02:00,48.0,42.0,30.42,NE,38,0.0,0.0,79,0.00,,,0.00,,2013-05-02 05:02:00,
2013-05-02 01:22:00,48.0,42.0,30.41,NE,39,0.0,0.0,80,0.00,,,0.00,,2013-05-02 05:22:00,
2013-05-02 01:32:00,48.0,42.0,30.41,NE,39,0.0,0.0,80,0.00,,,0.00,,2013-05-02 05:32:00,
2013-05-02 01:42:00,48.0,42.0,30.41,NE,39,0.0,0.0,80,0.00,,,0.00,,2013-05-02 05:42:00,
2013-05-02 01:52:00,48.0,42.0,30.41,NE,39,0.0,0.0,80,0.00,,,0.00,,2013-05-02 05:52:00,
2013-05-02 02:01:00,48.0,42.0,30.41,NE,39,0.0,0.0,80,0.00,,,0.00,,2013-05-02 06:01:00,
2013-05-02 02:22:00,47.0,42.0,30.40,NE,55,1.0,3.0,83,0.00,,,0.00,,2013-05-02 06:22:00,
2013-05-02 02:32:00,47.0,42.0,30.40,NE,55,1.0,3.0,83,0.00,,,0.00,,2013-05-02 06:32:00,
2013-05-02 02:42:00,47.0,42.0,30.40,NE,55,1.0,3.0,83,0.00,,,0.00,,2013-05-02 06:42:00,
2013-05-02 02:52:00,47.0,42.0,30.40,NE,55,1.0,3.0,83,0.00,,,0.00,,2013-05-02 06:52:00,
2013-05-02 03:02:00,47.0,42.0,30.40,NE,55,1.0,3.0,83,0.00,,,0.00,,2013-05-02 07:02:00,
2013-05-02 03:22:00,46.0,42.0,30.40,NE,55,0.0,0.0,86,0.00,,,0.00,,2013-05-02 07:22:00,
2013-05-02 03:32:00,46.0,42.0,30.40,NE,55,0.0,0.0,86,0.00,,,0.00,,2013-05-02 07:32:00,
2013-05-02 03:42:00,46.0,42.0,30.40,NE,55,0.0,0.0,86,0.00,,,0.00,,2013-05-02 07:42:00,
2013-05-02 03:52:00,46.0,42.0,30.40,NE,55,0.0,0.0,86,0.00,,,0.00,,2013-05-02 07:52:00,
2013-05-02 04:02:00,46.0,42.0,30.40,NE,55,0.0,0.0,86,0.00,,,0.00,,2013-05-02 08:02:00,
2013-05-02 04:22:00,43.0,40.0,30.40,NE,55,0.0,0.0,88,0.00,,,0.00,,2013-05-02 08:22:00,
2013-05-02 04:32:00,43.0,40.0,30.40,NE,55,0.0,0.0,88,0.00,,,0.00,,2013-05-02 08:32:00,
2013-05-02 04:42:00,43.0,40.0,30.40,NE,55,0.0,0.0,88,0.00,,,0.00,,2013-05-02 08:42:00,
2013-05-02 04:52:00,43.0,40.0,30.40,NE,55,0.0,0.0,88,0.00,,,0.00,,2013-05-02 08:52:00,
2013-05-02 05:02:00,43.0,40.0,30.40,NE,55,0.0,0.0,88,0.00,,,0.00,,2013-05-02 09:02:00,
2013-05-02 05:03:00,43.0,41.0,30.40,NE,55,0.0,0.0,91,0.00,,,0.00,,2013-05-02 09:03:00,
2013-05-02 05:22:00,43.0,41.0,30.40,NE,55,0.0,0.0,91,0.00,,,0.00,,2013-05-02 09:22:00,
2013-05-02 05:33:00,43.0,41.0,30.40,NE,55,0.0,0.0,91,0.00,,,0.00,,2013-05-02 09:33:00,
2013-05-02 05:43:00,43.0,41.0,30.40,NE,55,0.0,0.0,91,0.00,,,0.00,,2013-05-02 09:43:00,
2013-05-02 05:52:00,43.0,41.0,30.40,NE,55,0.0,0.0,91,0.00,,,0.00,,2013-05-02 09:52:00,
2013-05-02 06:23:00,42.0,40.0,30.40,NE,55,0.0,0.0,92,0.00,,,0.00,,2013-05-02 10:23:00,
2013-05-02 06:33:00,42.0,40.0,30.40,NE,55,0.0,0.0,92,0.00,,,0.00,,2013-05-02 10:33:00,
2013-05-02 06:42:00,42.0,40.0,30.40,NE,55,0.0,0.0,92,0.00,,,0.00,,2013-05-02 10:42:00,
2013-05-02 06:53:00,42.0,40.0,30.40,NE,55,0.0,0.0,92,0.00,,,0.00,,2013-05-02 10:53:00,
2013-05-02 07:02:00,42.0,40.0,30.40,NE,55,0.0,0.0,92,0.00,,,0.00,,2013-05-02 11:02:00,
2013-05-02 07:22:00,44.0,42.0,30.42,NE,53,0.0,0.0,92,0.00,,,0.00,,2013-05-02 11:22:00,
2013-05-02 07:32:00,44.0,42.0,30.42,NE,53,0.0,0.0,92,0.00,,,0.00,,2013-05-02 11:32:00,
2013-05-02 07:42:00,44.0,42.0,30.42,NE,53,0.0,0.0,92,0.00,,,0.00,,2013-05-02 11:42:00,
2013-05-02 07:52:00,44.0,42.0,30.42,NE,53,0.0,0.0,92,0.00,,,0.00,,2013-05-02 11:52:00,
2013-05-02 08:01:00,44.0,42.0,30.42,NE,53,0.0,0.0,92,0.00,,,0.00,,2013-05-02 12:01:00,
2013-05-02 08:22:00,48.0,44.0,30.42,NE,47,0.0,5.0,86,0.00,,,0.00,,2013-05-02 12:22:00,
2013-05-02 08:32:00,48.0,44.0,30.42,NE,47,0.0,5.0,86,0.00,,,0.00,,2013-05-02 12:32:00,
2013-05-02 08:42:00,48.0,44.0,30.42,NE,47,0.0,5.0,86,0.00,,,0.00,,2013-05-02 12:42:00,
2013-05-02 08:52:00,48.0,44.0,30.42,NE,47,0.0,5.0,86,0.00,,,0.00,,2013-05-02 12:52:00,
2013-05-02 09:01:00,48.0,44.0,30.42,NE,47,0.0,5.0,86,0.00,,,0.00,,2013-05-02 13:01:00,
2013-05-02 09:22:00,53.0,46.0,30.43,NE,46,0.0,6.0,76,0.00,,,0.00,,2013-05-02 13:22:00,
2013-05-02 09:32:00,53.0,46.0,30.43,NE,46,0.0,6.0,76,0.00,,,0.00,,2013-05-02 13:32:00,
2013-05-02 09:42:00,53.0,46.0,30.43,NE,46,0.0,6.0,76,0.00,,,0.00,,2013-05-02 13:42:00,
2013-05-02 09:52:00,53.0,46.0,30.43,NE,46,0.0,6.0,76,0.00,,,0.00,,2013-05-02 13:52:00,
2013-05-02 10:02:00,53.0,46.0,30.43,NE,46,0.0,6.0,76,0.00,,,0.00,,2013-05-02 14:02:00,
2013-05-02 10:22:00,57.0,47.0,30.44,ENE,71,0.0,4.0,70,0.00,,,0.00,,2013-05-02 14:22:00,
2013-05-02 10:32:00,57.0,47.0,30.44,ENE,71,0.0,4.0,70,0.00,,,0.00,,2013-05-02 14:32:00,
2013-05-02 10:43:00,57.0,47.0,30.44,ENE,71,0.0,4.0,70,0.00,,,0.00,,2013-05-02 14:43:00,
2013-05-02 10:52:00,57.0,47.0,30.44,ENE,71,0.0,4.0,70,0.00,,,0.00,,2013-05-02 14:52:00,
2013-05-02 11:02:00,60.0,47.0,30.44,ESE,102,1.0,4.0,61,0.00,,,0.00,,2013-05-02 15:02:00,
2013-05-02 11:22:00,60.0,47.0,30.44,ESE,102,1.0,4.0,61,0.00,,,0.00,,2013-05-02 15:22:00,
2013-05-02 11:33:00,60.0,47.0,30.44,ESE,102,1.0,4.0,61,0.00,,,0.00,,2013-05-02 15:33:00,
2013-05-02 11:43:00,60.0,47.0,30.44,ESE,102,1.0,4.0,61,0.00,,,0.00,,2013-05-02 15:43:00,
2013-05-02 12:02:00,61.0,47.0,30.43,NE,46,0.0,11.0,59,0.00,,,0.00,,2013-05-02 16:02:00,
2013-05-02 12:23:00,61.0,47.0,30.43,NE,46,0.0,11.0,59,0.00,,,0.00,,2013-05-02 16:23:00,
2013-05-02 12:32:00,61.0,47.0,30.43,NE,46,0.0,11.0,59,0.00,,,0.00,,2013-05-02 16:32:00,
2013-05-02 12:43:00,61.0,47.0,30.43,NE,46,0.0,11.0,59,0.00,,,0.00,,2013-05-02 16:43:00,
2013-05-02 12:52:00,61.0,47.0,30.43,NE,46,0.0,11.0,59,0.00,,,0.00,,2013-05-02 16:52:00,
2013-05-02 13:22:00,64.0,47.0,30.41,NE,56,3.0,7.0,54,0.00,,,0.00,,2013-05-02 17:22:00,
2013-05-02 13:32:00,64.0,47.0,30.41,NE,56,3.0,7.0,54,0.00,,,0.00,,2013-05-02 17:32:00,
2013-05-02 13:42:00,64.0,47.0,30.41,NE,56,3.0,7.0,54,0.00,,,0.00,,2013-05-02 17:42:00,
2013-05-02 13:52:00,64.0,47.0,30.41,NE,56,3.0,7.0,54,0.00,,,0.00,,2013-05-02 17:52:00,
2013-05-02 14:01:00,64.0,47.0,30.41,NE,56,3.0,7.0,54,0.00,,,0.00,,2013-05-02 18:01:00,
2013-05-02 14:22:00,66.0,47.0,30.40,ENE,74,2.0,6.0,50,0.00,,,0.00,,2013-05-02 18:22:00,
2013-05-02 14:32:00,66.0,47.0,30.40,ENE,74,2.0,6.0,50,0.00,,,0.00,,2013-05-02 18:32:00,
2013-05-02 14:42:00,66.0,47.0,30.40,ENE,74,2.0,6.0,50,0.00,,,0.00,,2013-05-02 18:42:00,
2013-05-02 14:52:00,66.0,47.0,30.40,ENE,74,2.0,6.0,50,0.00,,,0.00,,2013-05-02 18:52:00,
2013-05-02 15:01:00,66.0,47.0,30.40,ENE,74,2.0,6.0,50,0.00,,,0.00,,2013-05-02 19:01:00,
2013-05-02 15:22:00,67.0,47.0,30.38,East,90,4.0,10.0,48,0.00,,,0.00,,2013-05-02 19:22:00,
2013-05-02 15:32:00,67.0,47.0,30.38,East,90,4.0,10.0,48,0.00,,,0.00,,2013-05-02 19:32:00,
2013-05-02 15:42:00,67.0,47.0,30.38,East,90,4.0,10.0,48,0.00,,,0.00,,2013-05-02 19:42:00,
2013-05-02 15:52:00,67.0,47.0,30.38,East,90,4.0,10.0,48,0.00,,,0.00,,2013-05-02 19:52:00,
2013-05-02 16:02:00,67.0,47.0,30.38,East,90,4.0,10.0,48,0.00,,,0.00,,2013-05-02 20:02:00,
2013-05-02 16:22:00,68.0,48.0,30.36,NE,46,2.0,7.0,49,0.00,,,0.00,,2013-05-02 20:22:00,
2013-05-02 16:32:00,68.0,48.0,30.36,NE,46,2.0,7.0,49,0.00,,,0.00,,2013-05-02 20:32:00,
2013-05-02 16:42:00,68.0,48.0,30.36,NE,46,2.0,7.0,49,0.00,,,0.00,,2013-05-02 20:42:00,
2013-05-02 16:52:00,68.0,48.0,30.36,NE,46,2.0,7.0,49,0.00,,,0.00,,2013-05-02 20:52:00,
2013-05-02 17:01:00,68.0,48.0,30.36,NE,46,2.0,7.0,49,0.00,,,0.00,,2013-05-02 21:01:00,
2013-05-02 17:03:00,69.0,48.0,30.35,East,99,0.0,9.0,47,0.00,,,0.00,,2013-05-02 21:03:00,
2013-05-02 17:21:00,69.0,48.0,30.35,East,99,0.0,9.0,47,0.00,,,0.00,,2013-05-02 21:21:00,
2013-05-02 17:33:00,69.0,48.0,30.35,East,99,0.0,9.0,47,0.00,,,0.00,,2013-05-02 21:33:00,
2013-05-02 17:42:00,69.0,48.0,30.35,East,99,0.0,9.0,47,0.00,,,0.00,,2013-05-02 21:42:00,
2013-05-02 17:53:00,69.0,48.0,30.35,East,99,0.0,9.0,47,0.00,,,0.00,,2013-05-02 21:53:00,
2013-05-02 18:22:00,70.0,47.0,30.33,ENE,76,0.0,3.0,44,0.00,,,0.00,,2013-05-02 22:22:00,
2013-05-02 18:33:00,70.0,47.0,30.33,ENE,76,0.0,3.0,44,0.00,,,0.00,,2013-05-02 22:33:00,
2013-05-02 18:42:00,70.0,47.0,30.33,ENE,76,0.0,3.0,44,0.00,,,0.00,,2013-05-02 22:42:00,
2013-05-02 18:53:00,70.0,47.0,30.33,ENE,76,0.0,3.0,44,0.00,,,0.00,,2013-05-02 22:53:00,
2013-05-02 19:02:00,70.0,47.0,30.33,ENE,76,0.0,3.0,44,0.00,,,0.00,,2013-05-02 23:02:00,
2013-05-02 19:22:00,68.0,45.0,30.33,ENE,76,0.0,3.0,43,0.00,,,0.00,,2013-05-02 23:22:00,
2013-05-02 19:32:00,68.0,45.0,30.33,ENE,76,0.0,3.0,43,0.00,,,0.00,,2013-05-02 23:32:00,
2013-05-02 19:42:00,68.0,45.0,30.33,ENE,76,0.0,3.0,43,0.00,,,0.00,,2013-05-02 23:42:00,
2013-05-02 19:52:00,68.0,45.0,30.33,ENE,76,0.0,3.0,43,0.00,,,0.00,,2013-05-02 23:52:00,
2013-05-02 20:01:00,68.0,45.0,30.33,ENE,76,0.0,3.0,43,0.00,,,0.00,,2013-05-03 00:01:00,
2013-05-02 20:22:00,63.0,42.0,30.32,ENE,76,0.0,0.0,47,0.00,,,0.00,,2013-05-03 00:22:00,
2013-05-02 20:32:00,63.0,42.0,30.32,ENE,76,0.0,0.0,47,0.00,,,0.00,,2013-05-03 00:32:00,
2013-05-02 20:42:00,63.0,42.0,30.32,ENE,76,0.0,0.0,47,0.00,,,0.00,,2013-05-03 00:42:00,
2013-05-02 20:52:00,63.0,42.0,30.32,ENE,76,0.0,0.0,47,0.00,,,0.00,,2013-05-03 00:52:00,
2013-05-02 21:01:00,63.0,42.0,30.32,ENE,76,0.0,0.0,47,0.00,,,0.00,,2013-05-03 01:01:00,
2013-05-02 21:21:00,60.0,41.0,30.32,ENE,75,0.0,0.0,49,0.00,,,0.00,,2013-05-03 01:21:00,
2013-05-02 21:32:00,60.0,41.0,30.32,ENE,75,0.0,0.0,49,0.00,,,0.00,,2013-05-03 01:32:00,
2013-05-02 21:42:00,60.0,41.0,30.32,ENE,75,0.0,0.0,49,0.00,,,0.00,,2013-05-03 01:42:00,
2013-05-02 21:52:00,60.0,41.0,30.32,ENE,75,0.0,0.0,49,0.00,,,0.00,,2013-05-03 01:52:00,
2013-05-02 22:01:00,60.0,41.0,30.32,ENE,75,0.0,0.0,49,0.00,,,0.00,,2013-05-03 02:01:00,
2013-05-02 22:22:00,58.0,42.0,30.31,ENE,75,0.0,0.0,55,0.00,,,0.00,,2013-05-03 02:22:00,
2013-05-02 22:32:00,58.0,42.0,30.31,ENE,75,0.0,0.0,55,0.00,,,0.00,,2013-05-03 02:32:00,
2013-05-02 22:42:00,58.0,42.0,30.31,ENE,75,0.0,0.0,55,0.00,,,0.00,,2013-05-03 02:42:00,
2013-05-02 22:52:00,58.0,42.0,30.31,ENE,75,0.0,0.0,55,0.00,,,0.00,,2013-05-03 02:52:00,
2013-05-02 23:01:00,58.0,42.0,30.31,ENE,75,0.0,0.0,55,0.00,,,0.00,,2013-05-03 03:01:00,
2013-05-02 23:02:00,56.0,45.0,30.30,ENE,76,0.0,0.0,66,0.00,,,0.00,,2013-05-03 03:02:00,
2013-05-02 23:21:00,56.0,45.0,30.30,ENE,76,0.0,0.0,66,0.00,,,0.00,,2013-05-03 03:21:00,
2013-05-02 23:33:00,56.0,45.0,30.30,ENE,76,0.0,0.0,66,0.00,,,0.00,,2013-05-03 03:33:00,
2013-05-02 23:43:00,56.0,45.0,30.30,ENE,76,0.0,0.0,66,0.00,,,0.00,,2013-05-03 03:43:00,
2013-05-02 23:53:00,56.0,45.0,30.30,ENE,76,0.0,0.0,66,0.00,,,0.00,,2013-05-03 03:53:00,